Anaheim, California
Current Conditions -  °F | °C
As of 5:53 AM on Tuesday 21 Oct 2014 (Local Time) from KFUL Reporting Station
Overcast Overcast  
Wind Chill: 66°   Ceiling: 1300
Heat Index: 66°   Visibility: 10mi
Dew Point: 60°   Wind: 5mph
Humidity: 81%   Direction: 120°ESE
Pressure: 29.89"   Gusts: NA
Location:  33.83°N, 117.91°W
Report Text: KFUL 211253Z 12004KT 10SM OVC013 19/16 A2989 RMK AO2 SLP119 T01890156 $
Loading
Personal Weather Stations






























Interactive Weather Map
Tropical Storm Tracking
New forecast layout! Learn more

10-Day Weather Forecast

Advertisements
Track Severe Weather on mobile